100LL.CA
Aviation Fuel Pricing for Canadians
Please upgrade your browser - Tested with IE9, FireFox, Chrome, Safari

Fuel Prices Airport Info Airport List METAR / TAF Kneeboard RSS

Reference Airport: Langley Regional, BC
N 49 06 03   W 122 37 51

Enter a list of
Airport Idents:
Sort Method: As Entered    By Ident   

CYVR
METAR CYVR 270800Z 27017G22KT 20SM BKN020 OVC050 09/05 A2992 RMK SC5SC3 SLP132
TAF AMD CYVR 270803Z 2708/2812 27015G25KT P6SM SCT020 BKN050 TEMPO 2708/2711 P6SM -SHRA BKN020 OVC050 FM271100 28012G22KT P6SM SCT020 BKN050 TEMPO 2711/2719 BKN020 FM271900 28015KT P6SM FEW050 SCT090 FM280300 28010KT P6SM FEW060 BECMG 2807/2809 33005KT RMK NXT FCST BY 270900Z
CYXX
METAR CYXX 270800Z 17010KT 10SM BKN027 OVC033 07/05 A2993 RMK SC5SC3 SLP139
TAF CYXX 270539Z 2706/2806 17010KT P6SM SCT040 BKN070 TEMPO 2706/2712 P6SM -SHRA BKN040 FM271200 19010KT P6SM SCT015 OVC040 TEMPO 2712/2721 5SM -SHRA BR BKN015 OVC025 FM272100 20010KT P6SM -SHRA BKN040 RMK NXT FCST BY 271200Z
KBLI
METAR KBLI 270753Z AUTO 17004KT 10SM OVC036 09/03 A2995 RMK AO2 SLP148 T00940028 401440094
TAF KBLI 270520Z 2706/2806 20006KT P6SM SCT025 OVC035 FM270900 18006KT P6SM SCT025 OVC030 FM271200 17005KT P6SM OVC025 FM271800 17006KT P6SM BKN040